Time;durP1;ratioP1;P1;durP2;ratioP2;P2;SDS_P1;SDS_P2;PMS_P1;PMS_P2;Temp;Humidity;BMP_temperature;BMP_pressure;BME280_temperature;BME280_humidity;BME280_pressure;Samples;Min_cycle;Max_cycle;Signal;HPM_P1;HPM_P2
2021/03/18 00:01:17;;;;;;;;;;;21.90;34.00;;;;;;467156;252;1268;-45
2021/03/18 00:03:18;;;;;;;;;;;21.90;34.00;;;;;;467908;253;1147;-45
2021/03/18 00:05:20;;;;;;;;;;;21.90;34.00;;;;;;467775;252;1340;-45
2021/03/18 00:07:21;;;;;;;;;;;21.90;34.00;;;;;;468953;252;2147;-45
2021/03/18 00:09:22;;;;;;;;;;;21.90;34.00;;;;;;467033;254;1022;-45
2021/03/18 00:11:23;;;;;;;;;;;21.90;34.00;;;;;;467897;253;1241;-45
2021/03/18 00:13:25;;;;;;;;;;;21.90;34.00;;;;;;467649;252;1065;-45
2021/03/18 00:15:26;;;;;;;;;;;21.90;34.00;;;;;;468971;253;1381;-46
2021/03/18 00:17:27;;;;;;;;;;;21.90;34.00;;;;;;467135;253;1046;-45
2021/03/18 00:19:29;;;;;;;;;;;21.90;34.00;;;;;;467923;253;1936;-46
2021/03/18 00:21:30;;;;;;;;;;;21.90;34.00;;;;;;468089;254;1200;-45
2021/03/18 00:23:31;;;;;;;;;;;21.90;34.00;;;;;;467790;252;1190;-46
2021/03/18 00:25:32;;;;;;;;;;;21.90;34.00;;;;;;468885;252;1175;-45
2021/03/18 00:27:34;;;;;;;;;;;21.90;34.00;;;;;;467130;252;2204;-45
2021/03/18 00:29:35;;;;;;;;;;;21.90;34.00;;;;;;468014;253;1164;-45
2021/03/18 00:31:36;;;;;;;;;;;21.90;34.00;;;;;;469301;254;1060;-45
2021/03/18 00:33:38;;;;;;;;;;;21.90;34.00;;;;;;469713;253;1495;-45
2021/03/18 00:35:39;;;;;;;;;;;21.90;33.90;;;;;;467673;252;1060;-45
2021/03/18 00:37:40;;;;;;;;;;;21.90;34.00;;;;;;468846;253;1142;-45
2021/03/18 00:39:41;;;;;;;;;;;21.90;33.90;;;;;;467286;253;1089;-45
2021/03/18 00:41:43;;;;;;;;;;;21.90;33.90;;;;;;468057;253;1039;-45
2021/03/18 00:43:44;;;;;;;;;;;21.90;33.90;;;;;;467626;253;1048;-45
2021/03/18 00:45:45;;;;;;;;;;;22.00;34.00;;;;;;468858;252;1223;-45
2021/03/18 00:47:47;;;;;;;;;;;21.90;34.00;;;;;;467304;253;2362;-45
2021/03/18 00:49:48;;;;;;;;;;;21.90;34.00;;;;;;467949;253;1077;-45
2021/03/18 00:51:49;;;;;;;;;;;21.90;34.00;;;;;;469121;254;1121;-45
2021/03/18 00:53:50;;;;;;;;;;;21.90;34.10;;;;;;469625;253;1093;-45
2021/03/18 00:55:52;;;;;;;;;;;21.90;34.00;;;;;;467621;252;1219;-45
2021/03/18 00:57:53;;;;;;;;;;;21.90;34.00;;;;;;468938;252;1048;-46
2021/03/18 00:59:54;;;;;;;;;;;21.90;34.00;;;;;;467162;253;1158;-45
2021/03/18 01:01:55;;;;;;;;;;;21.90;34.00;;;;;;468064;253;1157;-44
2021/03/18 01:03:57;;;;;;;;;;;21.90;34.00;;;;;;467661;253;1073;-45
2021/03/18 01:05:58;;;;;;;;;;;21.90;33.90;;;;;;468840;253;1472;-45
2021/03/18 01:07:59;;;;;;;;;;;21.90;33.90;;;;;;467448;252;2197;-45
2021/03/18 01:10:01;;;;;;;;;;;21.90;33.90;;;;;;467948;253;1054;-45
2021/03/18 01:12:02;;;;;;;;;;;21.90;33.90;;;;;;467860;254;1180;-45
2021/03/18 01:14:03;;;;;;;;;;;21.90;33.90;;;;;;467603;253;1113;-45
2021/03/18 01:16:04;;;;;;;;;;;21.90;34.00;;;;;;468919;253;1306;-45
2021/03/18 01:18:06;;;;;;;;;;;22.00;34.00;;;;;;467220;254;1079;-45
2021/03/18 01:20:07;;;;;;;;;;;21.90;34.00;;;;;;467905;255;1076;-45
2021/03/18 01:22:08;;;;;;;;;;;21.90;34.00;;;;;;469115;254;1143;-45
2021/03/18 01:24:10;;;;;;;;;;;21.90;33.90;;;;;;469742;254;966;-45
2021/03/18 01:26:11;;;;;;;;;;;22.00;34.00;;;;;;468011;254;1170;-45
2021/03/18 01:28:12;;;;;;;;;;;21.90;33.90;;;;;;468128;254;1225;-45
2021/03/18 01:30:13;;;;;;;;;;;22.00;34.00;;;;;;467899;254;1169;-45
2021/03/18 01:32:15;;;;;;;;;;;21.90;33.90;;;;;;467873;254;1058;-45
2021/03/18 01:34:16;;;;;;;;;;;22.00;34.00;;;;;;467997;254;1040;-45
2021/03/18 01:36:17;;;;;;;;;;;22.00;34.00;;;;;;467922;254;1061;-45
2021/03/18 01:38:19;;;;;;;;;;;22.00;33.90;;;;;;469239;254;1226;-45
2021/03/18 01:40:20;;;;;;;;;;;22.00;34.00;;;;;;469702;253;1058;-46
2021/03/18 01:42:21;;;;;;;;;;;22.00;34.00;;;;;;467605;253;1072;-45
2021/03/18 01:44:22;;;;;;;;;;;22.00;34.00;;;;;;468971;253;1048;-46
2021/03/18 01:46:24;;;;;;;;;;;22.00;33.90;;;;;;466968;252;2225;-44
2021/03/18 01:48:25;;;;;;;;;;;22.00;34.00;;;;;;467874;253;1235;-46
2021/03/18 01:50:26;;;;;;;;;;;22.00;34.00;;;;;;467885;254;1056;-45
2021/03/18 01:52:28;;;;;;;;;;;22.00;34.00;;;;;;467855;254;1082;-45
2021/03/18 01:54:29;;;;;;;;;;;21.90;33.90;;;;;;467804;253;1072;-45
2021/03/18 01:56:30;;;;;;;;;;;22.00;34.00;;;;;;469071;253;1083;-45
2021/03/18 01:58:31;;;;;;;;;;;22.00;33.90;;;;;;467138;254;1048;-45
2021/03/18 02:00:33;;;;;;;;;;;22.00;33.90;;;;;;467888;253;1095;-45
2021/03/18 02:02:34;;;;;;;;;;;22.00;33.90;;;;;;467692;253;1107;-45
2021/03/18 02:04:35;;;;;;;;;;;22.00;33.90;;;;;;468947;253;1055;-46
2021/03/18 02:06:36;;;;;;;;;;;22.00;33.90;;;;;;467155;254;2200;-46
2021/03/18 02:08:38;;;;;;;;;;;22.00;34.00;;;;;;467804;253;1035;-46
2021/03/18 02:10:39;;;;;;;;;;;22.00;33.90;;;;;;467666;252;1005;-45
2021/03/18 02:12:40;;;;;;;;;;;22.00;34.00;;;;;;468888;252;1078;-45
2021/03/18 02:14:42;;;;;;;;;;;22.00;33.90;;;;;;467325;252;1055;-45
2021/03/18 02:16:43;;;;;;;;;;;22.00;33.90;;;;;;467852;255;1203;-45
2021/03/18 02:18:47;;;;;;;;;;;22.00;33.90;;;;;;467612;252;1039;-46
2021/03/18 02:20:45;;;;;;;;;;;22.00;34.00;;;;;;468884;254;1483;-45
2021/03/18 02:22:53;;;;;;;;;;;22.00;33.90;;;;;;467159;252;1028;-45
2021/03/18 02:24:48;;;;;;;;;;;22.00;33.90;;;;;;467978;253;1440;-45
2021/03/18 02:26:49;;;;;;;;;;;22.00;33.90;;;;;;467549;252;2148;-45
2021/03/18 02:28:51;;;;;;;;;;;22.00;33.90;;;;;;469173;252;1042;-45
2021/03/18 02:30:52;;;;;;;;;;;22.00;34.00;;;;;;467073;254;1228;-45
2021/03/18 02:32:53;;;;;;;;;;;21.90;34.00;;;;;;467858;253;1166;-45
2021/03/18 02:34:55;;;;;;;;;;;22.00;33.90;;;;;;467652;253;1108;-45
2021/03/18 02:36:56;;;;;;;;;;;22.00;33.90;;;;;;468907;253;1304;-45
2021/03/18 02:38:57;;;;;;;;;;;21.50;34.60;;;;;;467015;252;1136;-45
2021/03/18 02:40:58;;;;;;;;;;;20.80;35.80;;;;;;467845;253;1120;-45
2021/03/18 02:43:00;;;;;;;;;;;20.30;36.80;;;;;;467672;252;1144;-45
2021/03/18 02:45:01;;;;;;;;;;;19.90;37.50;;;;;;469068;252;1054;-45
2021/03/18 02:47:02;;;;;;;;;;;19.70;38.00;;;;;;467135;254;2170;-45
2021/03/18 02:49:03;;;;;;;;;;;19.50;38.40;;;;;;468207;253;1059;-45
2021/03/18 02:51:05;;;;;;;;;;;19.30;38.80;;;;;;467836;254;1743;-45
2021/03/18 02:53:06;;;;;;;;;;;19.20;39.00;;;;;;469134;254;1263;-45
2021/03/18 02:55:07;;;;;;;;;;;19.10;39.20;;;;;;469608;254;1139;-45
2021/03/18 02:57:09;;;;;;;;;;;19.00;39.40;;;;;;467769;254;1197;-45
2021/03/18 02:59:10;;;;;;;;;;;18.90;39.50;;;;;;467651;253;1084;-45
2021/03/18 03:01:11;;;;;;;;;;;18.80;39.70;;;;;;468910;253;1332;-45
2021/03/18 03:03:13;;;;;;;;;;;18.80;39.80;;;;;;467453;255;1180;-45
2021/03/18 03:05:14;;;;;;;;;;;18.70;39.80;;;;;;468143;253;1018;-45
2021/03/18 03:07:15;;;;;;;;;;;18.60;39.90;;;;;;467826;254;2201;-45
2021/03/18 03:09:17;;;;;;;;;;;18.60;40.00;;;;;;467723;252;1072;-45
2021/03/18 03:11:18;;;;;;;;;;;18.60;40.10;;;;;;468911;253;1052;-45
2021/03/18 03:13:19;;;;;;;;;;;18.50;40.20;;;;;;467347;254;1127;-45
2021/03/18 03:15:21;;;;;;;;;;;18.50;40.30;;;;;;467884;253;1127;-45
2021/03/18 03:17:22;;;;;;;;;;;18.50;40.30;;;;;;467686;252;1323;-45
2021/03/18 03:19:23;;;;;;;;;;;18.40;40.30;;;;;;468903;246;1692;-45
2021/03/18 03:21:25;;;;;;;;;;;18.40;40.40;;;;;;467096;253;1033;-45
2021/03/18 03:23:26;;;;;;;;;;;18.40;40.50;;;;;;468012;253;1026;-45
2021/03/18 03:25:27;;;;;;;;;;;18.30;40.50;;;;;;467961;254;1069;-45
2021/03/18 03:27:29;;;;;;;;;;;18.30;40.50;;;;;;467883;254;2196;-45
2021/03/18 03:29:30;;;;;;;;;;;18.30;40.40;;;;;;467698;252;1074;-45
2021/03/18 03:31:31;;;;;;;;;;;18.30;40.40;;;;;;468988;252;1163;-45
2021/03/18 03:33:34;;;;;;;;;;;18.40;40.40;;;;;;467134;254;1055;-44
2021/03/18 03:35:34;;;;;;;;;;;18.30;40.30;;;;;;467836;253;1495;-45
2021/03/18 03:37:35;;;;;;;;;;;18.30;40.30;;;;;;467656;253;1044;-45
2021/03/18 03:39:36;;;;;;;;;;;18.30;40.20;;;;;;469170;253;1098;-44
2021/03/18 03:41:38;;;;;;;;;;;18.30;40.20;;;;;;467257;254;1055;-45
2021/03/18 03:43:39;;;;;;;;;;;18.30;40.20;;;;;;468121;253;998;-45
2021/03/18 03:45:40;;;;;;;;;;;18.30;40.20;;;;;;467582;253;1053;-44
2021/03/18 03:47:41;;;;;;;;;;;18.30;40.10;;;;;;468925;253;2171;-45
2021/03/18 03:49:43;;;;;;;;;;;18.30;40.20;;;;;;467157;254;1035;-45
2021/03/18 03:51:44;;;;;;;;;;;18.30;40.20;;;;;;467897;253;1325;-45
2021/03/18 03:53:45;;;;;;;;;;;18.30;40.20;;;;;;468107;254;1069;-45
2021/03/18 03:55:47;;;;;;;;;;;18.30;40.30;;;;;;467978;254;1132;-45
2021/03/18 03:57:48;;;;;;;;;;;18.20;40.20;;;;;;467952;254;1044;-45
2021/03/18 03:59:49;;;;;;;;;;;18.20;40.20;;;;;;467650;253;1059;-45
2021/03/18 04:01:50;;;;;;;;;;;18.20;40.20;;;;;;468852;252;1353;-45
2021/03/18 04:03:52;;;;;;;;;;;18.30;40.20;;;;;;467173;253;1113;-45
2021/03/18 04:05:53;;;;;;;;;;;18.20;40.10;;;;;;467984;253;1321;-45
2021/03/18 04:07:54;;;;;;;;;;;18.30;40.10;;;;;;468316;254;2184;-45
2021/03/18 04:09:56;;;;;;;;;;;18.20;40.00;;;;;;468130;254;1140;-45
2021/03/18 04:11:57;;;;;;;;;;;18.20;40.10;;;;;;467898;254;1291;-45
2021/03/18 04:13:58;;;;;;;;;;;18.20;40.10;;;;;;468025;254;1085;-45
2021/03/18 04:15:59;;;;;;;;;;;18.30;40.10;;;;;;467597;253;1524;-45
2021/03/18 04:18:01;;;;;;;;;;;18.20;40.00;;;;;;469025;252;1244;-45
2021/03/18 04:20:02;;;;;;;;;;;18.20;40.10;;;;;;467315;253;1079;-45
2021/03/18 04:22:03;;;;;;;;;;;18.20;40.20;;;;;;467812;253;1069;-45
2021/03/18 04:24:05;;;;;;;;;;;18.10;40.20;;;;;;467759;252;1086;-45
2021/03/18 04:26:06;;;;;;;;;;;18.20;40.10;;;;;;469017;250;1448;-45
2021/03/18 04:28:09;;;;;;;;;;;18.20;40.10;;;;;;467047;252;2209;-45
2021/03/18 04:30:10;;;;;;;;;;;18.10;40.10;;;;;;468157;255;1091;-45
2021/03/18 04:32:11;;;;;;;;;;;18.10;40.20;;;;;;467708;251;1279;-45
2021/03/18 04:34:12;;;;;;;;;;;18.10;40.20;;;;;;468866;252;1107;-45
2021/03/18 04:36:14;;;;;;;;;;;18.10;40.20;;;;;;466934;254;1477;-45
2021/03/18 04:38:15;;;;;;;;;;;18.10;40.20;;;;;;467988;253;1070;-45
2021/03/18 04:40:16;;;;;;;;;;;18.10;40.10;;;;;;467866;254;1088;-45
2021/03/18 04:42:17;;;;;;;;;;;18.10;40.10;;;;;;467790;254;1204;-45
2021/03/18 04:44:19;;;;;;;;;;;18.10;40.10;;;;;;467797;252;1080;-45
2021/03/18 04:46:20;;;;;;;;;;;18.10;40.10;;;;;;469014;250;1378;-45
2021/03/18 04:48:21;;;;;;;;;;;18.10;40.00;;;;;;467114;252;2193;-45
2021/03/18 04:50:23;;;;;;;;;;;18.10;40.10;;;;;;468026;253;1233;-45
2021/03/18 04:52:24;;;;;;;;;;;18.00;40.10;;;;;;467630;252;1073;-45
2021/03/18 04:54:25;;;;;;;;;;;18.10;40.10;;;;;;469308;252;1103;-45
2021/03/18 04:56:26;;;;;;;;;;;18.10;40.00;;;;;;467187;252;1222;-45
2021/03/18 04:58:28;;;;;;;;;;;18.10;40.10;;;;;;468286;253;1059;-45
2021/03/18 05:00:29;;;;;;;;;;;18.30;39.80;;;;;;468045;254;1088;-45
2021/03/18 05:02:30;;;;;;;;;;;18.60;39.00;;;;;;467667;252;1216;-45
2021/03/18 05:04:32;;;;;;;;;;;19.00;38.10;;;;;;468912;252;1022;-45
2021/03/18 05:06:33;;;;;;;;;;;19.30;37.50;;;;;;467334;252;1340;-45
2021/03/18 05:08:34;;;;;;;;;;;19.50;37.10;;;;;;467863;253;2208;-45
2021/03/18 05:10:39;;;;;;;;;;;19.70;36.80;;;;;;467882;254;1271;-45
2021/03/18 05:12:37;;;;;;;;;;;19.80;36.50;;;;;;467860;254;1486;-45
2021/03/18 05:14:38;;;;;;;;;;;19.90;36.30;;;;;;467979;253;1090;-45
2021/03/18 05:16:39;;;;;;;;;;;20.00;36.20;;;;;;468893;253;1317;-45
2021/03/18 05:18:40;;;;;;;;;;;20.10;36.10;;;;;;467201;253;1153;-45
2021/03/18 05:20:42;;;;;;;;;;;20.10;35.90;;;;;;467836;255;1055;-45
2021/03/18 05:22:43;;;;;;;;;;;20.20;35.90;;;;;;467829;252;1215;-45
2021/03/18 05:24:44;;;;;;;;;;;20.20;35.80;;;;;;468786;252;1110;-45
2021/03/18 05:26:46;;;;;;;;;;;20.20;35.60;;;;;;466870;254;1191;-45
2021/03/18 05:28:47;;;;;;;;;;;20.30;35.60;;;;;;467742;253;2208;-45
2021/03/18 05:30:48;;;;;;;;;;;20.30;35.50;;;;;;467528;253;1230;-45
2021/03/18 05:32:49;;;;;;;;;;;20.40;35.50;;;;;;468662;253;1403;-45
2021/03/18 05:34:51;;;;;;;;;;;20.40;35.40;;;;;;466945;252;1088;-45
2021/03/18 05:36:52;;;;;;;;;;;20.40;35.30;;;;;;467724;253;1162;-45
2021/03/18 05:38:53;;;;;;;;;;;20.40;35.30;;;;;;467566;253;1346;-45
2021/03/18 05:40:55;;;;;;;;;;;20.50;35.30;;;;;;468687;253;1176;-45
2021/03/18 05:42:56;;;;;;;;;;;20.50;35.20;;;;;;466980;252;1253;-45
2021/03/18 05:44:57;;;;;;;;;;;20.50;35.10;;;;;;467736;253;1123;-45
2021/03/18 05:46:58;;;;;;;;;;;20.60;35.10;;;;;;467504;252;1652;-45
2021/03/18 05:49:00;;;;;;;;;;;20.60;35.10;;;;;;468823;252;2191;-45
2021/03/18 05:51:01;;;;;;;;;;;20.70;35.00;;;;;;466903;255;1198;-45
2021/03/18 05:53:03;;;;;;;;;;;20.70;35.00;;;;;;467745;253;1213;-45
2021/03/18 05:55:04;;;;;;;;;;;20.70;35.00;;;;;;467788;254;1141;-45
2021/03/18 05:57:05;;;;;;;;;;;20.70;34.90;;;;;;467622;251;1411;-45
2021/03/18 05:59:06;;;;;;;;;;;20.70;34.90;;;;;;467710;254;1230;-45
2021/03/18 06:01:08;;;;;;;;;;;20.80;34.90;;;;;;467629;254;1215;-45
2021/03/18 06:03:09;;;;;;;;;;;20.80;34.80;;;;;;467520;252;1192;-45
2021/03/18 06:05:10;;;;;;;;;;;20.80;34.80;;;;;;468848;253;1060;-45
2021/03/18 06:07:12;;;;;;;;;;;20.80;34.80;;;;;;466901;253;974;-45
2021/03/18 06:09:13;;;;;;;;;;;20.80;34.80;;;;;;467739;253;2150;-45
2021/03/18 06:11:14;;;;;;;;;;;20.80;34.70;;;;;;467397;252;1076;-45
2021/03/18 06:13:15;;;;;;;;;;;20.90;34.70;;;;;;468641;253;1077;-45
2021/03/18 06:15:17;;;;;;;;;;;20.90;34.70;;;;;;466793;253;1222;-45
2021/03/18 06:17:18;;;;;;;;;;;20.90;34.60;;;;;;467652;253;1173;-45
2021/03/18 06:19:19;;;;;;;;;;;20.90;34.60;;;;;;467660;254;1316;-45
2021/03/18 06:21:20;;;;;;;;;;;20.90;34.60;;;;;;468926;254;1043;-45
2021/03/18 06:23:22;;;;;;;;;;;21.00;34.60;;;;;;469407;253;1166;-45
2021/03/18 06:25:23;;;;;;;;;;;21.00;34.60;;;;;;467555;254;1203;-45
2021/03/18 06:27:25;;;;;;;;;;;21.00;34.60;;;;;;467591;254;1106;-45
2021/03/18 06:29:26;;;;;;;;;;;21.00;34.50;;;;;;467480;253;2156;-45
2021/03/18 06:31:27;;;;;;;;;;;21.00;34.50;;;;;;468613;252;1174;-45
2021/03/18 06:33:28;;;;;;;;;;;21.00;34.50;;;;;;466713;254;1165;-45
2021/03/18 06:35:30;;;;;;;;;;;21.00;34.50;;;;;;467487;253;1326;-45
2021/03/18 06:37:31;;;;;;;;;;;21.00;34.50;;;;;;468849;254;1091;-45
2021/03/18 06:39:32;;;;;;;;;;;21.00;34.40;;;;;;469265;253;1121;-45
2021/03/18 06:41:34;;;;;;;;;;;21.10;34.50;;;;;;467477;254;1207;-45
2021/03/18 06:43:35;;;;;;;;;;;21.10;34.40;;;;;;467395;253;1100;-45
2021/03/18 06:45:37;;;;;;;;;;;21.10;34.40;;;;;;468566;253;1098;-45
2021/03/18 06:47:38;;;;;;;;;;;21.10;34.40;;;;;;466794;251;1469;-45
2021/03/18 06:49:39;;;;;;;;;;;21.10;34.40;;;;;;467538;253;2197;-45
2021/03/18 06:51:40;;;;;;;;;;;21.10;34.40;;;;;;467330;253;1137;-45
2021/03/18 06:53:42;;;;;;;;;;;21.10;34.30;;;;;;468582;252;1214;-45
2021/03/18 06:55:43;;;;;;;;;;;21.10;34.30;;;;;;466689;252;1149;-45
2021/03/18 06:57:44;;;;;;;;;;;21.20;34.40;;;;;;467471;255;1141;-45
2021/03/18 06:59:45;;;;;;;;;;;21.20;34.40;;;;;;467300;252;1072;-45
2021/03/18 07:01:47;;;;;;;;;;;21.20;34.30;;;;;;468434;252;1108;-45
2021/03/18 07:03:48;;;;;;;;;;;21.20;34.30;;;;;;466671;253;1148;-45
2021/03/18 07:05:49;;;;;;;;;;;21.20;34.30;;;;;;467436;253;1069;-45
2021/03/18 07:07:51;;;;;;;;;;;21.20;34.30;;;;;;467057;251;1298;-45
2021/03/18 07:09:52;;;;;;;;;;;21.20;34.30;;;;;;468139;252;2124;-45
2021/03/18 07:11:53;;;;;;;;;;;21.20;34.30;;;;;;466518;253;1173;-45
2021/03/18 07:13:54;;;;;;;;;;;21.20;34.30;;;;;;467107;255;1090;-45
2021/03/18 07:15:56;;;;;;;;;;;21.30;34.30;;;;;;468622;254;1322;-45
2021/03/18 07:17:57;;;;;;;;;;;21.20;34.20;;;;;;468992;253;1291;-45
2021/03/18 07:19:58;;;;;;;;;;;21.20;34.20;;;;;;466742;252;1210;-45
2021/03/18 07:22:00;;;;;;;;;;;21.20;34.20;;;;;;468172;252;1231;-45
2021/03/18 07:24:01;;;;;;;;;;;21.20;34.20;;;;;;466354;254;1093;-45
2021/03/18 07:26:02;;;;;;;;;;;21.20;34.20;;;;;;466890;255;1267;-46
2021/03/18 07:28:03;;;;;;;;;;;21.20;34.20;;;;;;467071;252;1142;-45
2021/03/18 07:30:05;;;;;;;;;;;21.30;34.20;;;;;;468194;253;2191;-45
2021/03/18 07:32:06;;;;;;;;;;;21.20;34.20;;;;;;466445;253;1139;-45
2021/03/18 07:34:07;;;;;;;;;;;21.30;34.20;;;;;;467399;253;1214;-45
2021/03/18 07:36:09;;;;;;;;;;;21.30;34.20;;;;;;467391;254;1314;-45
2021/03/18 07:38:10;;;;;;;;;;;21.30;34.20;;;;;;466991;253;1072;-45
2021/03/18 07:40:11;;;;;;;;;;;21.30;34.20;;;;;;468150;253;1240;-45
2021/03/18 07:42:12;;;;;;;;;;;21.30;34.20;;;;;;466339;254;1144;-45
2021/03/18 07:44:14;;;;;;;;;;;21.30;34.20;;;;;;466947;253;1101;-46
2021/03/18 07:46:15;;;;;;;;;;;21.30;34.20;;;;;;466548;253;1343;-45
2021/03/18 07:48:16;;;;;;;;;;;21.30;34.20;;;;;;467944;252;1119;-45
2021/03/18 07:50:17;;;;;;;;;;;21.30;34.20;;;;;;466089;254;2130;-45
2021/03/18 07:52:19;;;;;;;;;;;21.30;34.20;;;;;;467060;253;1157;-45
2021/03/18 07:54:20;;;;;;;;;;;21.30;34.20;;;;;;467043;254;1126;-46
2021/03/18 07:56:21;;;;;;;;;;;21.30;34.10;;;;;;466833;252;1236;-45
2021/03/18 07:58:23;;;;;;;;;;;21.30;34.10;;;;;;468165;252;1117;-45
2021/03/18 08:00:24;;;;;;;;;;;21.40;34.10;;;;;;466143;254;1317;-45
2021/03/18 08:02:25;;;;;;;;;;;21.40;34.10;;;;;;467267;253;1191;-45
2021/03/18 08:04:26;;;;;;;;;;;21.40;34.10;;;;;;467908;254;1097;-45
2021/03/18 08:06:28;;;;;;;;;;;21.40;34.10;;;;;;467817;254;1338;-45
2021/03/18 08:08:29;;;;;;;;;;;21.40;34.10;;;;;;467441;254;2208;-45
2021/03/18 08:10:30;;;;;;;;;;;21.40;34.10;;;;;;467718;254;1237;-45
2021/03/18 08:12:31;;;;;;;;;;;21.40;34.10;;;;;;467338;254;1100;-45
2021/03/18 08:14:33;;;;;;;;;;;21.40;34.10;;;;;;466940;253;1042;-46
2021/03/18 08:16:34;;;;;;;;;;;21.40;34.10;;;;;;468642;252;1200;-45
2021/03/18 08:18:35;;;;;;;;;;;21.40;34.10;;;;;;466578;252;884;-45
2021/03/18 08:20:36;;;;;;;;;;;21.40;34.10;;;;;;467655;253;1075;-45
2021/03/18 08:22:38;;;;;;;;;;;21.40;34.10;;;;;;469086;254;1304;-45
2021/03/18 08:24:39;;;;;;;;;;;21.40;34.10;;;;;;468998;253;1346;-45
2021/03/18 08:26:42;;;;;;;;;;;21.40;34.10;;;;;;466803;252;868;-45
2021/03/18 08:28:42;;;;;;;;;;;21.40;34.10;;;;;;467979;253;2203;-45
2021/03/18 08:30:44;;;;;;;;;;;21.40;34.00;;;;;;466857;252;899;-45
2021/03/18 08:32:45;;;;;;;;;;;21.40;34.10;;;;;;467277;253;1262;-46
2021/03/18 08:34:46;;;;;;;;;;;21.40;34.00;;;;;;467532;253;934;-46
2021/03/18 08:36:47;;;;;;;;;;;21.40;34.10;;;;;;468298;253;1095;-45
2021/03/18 08:38:49;;;;;;;;;;;21.40;34.00;;;;;;466956;253;876;-45
2021/03/18 08:40:50;;;;;;;;;;;21.40;34.00;;;;;;467697;253;958;-45
2021/03/18 08:42:51;;;;;;;;;;;21.40;34.10;;;;;;466865;249;1346;-46
2021/03/18 08:44:53;;;;;;;;;;;21.40;34.10;;;;;;468776;252;874;-45
2021/03/18 08:46:54;;;;;;;;;;;21.40;34.00;;;;;;466846;253;1274;-45
2021/03/18 08:48:55;;;;;;;;;;;21.50;34.10;;;;;;466969;253;2200;-45
2021/03/18 08:50:58;;;;;;;;;;;21.50;34.00;;;;;;466059;253;1282;-45
2021/03/18 08:52:58;;;;;;;;;;;21.50;34.00;;;;;;468402;253;1363;-46
2021/03/18 08:54:59;;;;;;;;;;;21.50;34.00;;;;;;466741;253;941;-45
2021/03/18 08:57:01;;;;;;;;;;;21.50;34.10;;;;;;467805;253;910;-45
2021/03/18 08:59:03;;;;;;;;;;;21.50;34.00;;;;;;466933;254;952;-45
2021/03/18 09:01:03;;;;;;;;;;;21.50;34.00;;;;;;468252;253;1950;-45
2021/03/18 09:03:05;;;;;;;;;;;21.50;34.00;;;;;;466780;252;1285;-45
2021/03/18 09:05:06;;;;;;;;;;;21.50;34.00;;;;;;467299;255;859;-45
2021/03/18 09:07:07;;;;;;;;;;;21.50;34.00;;;;;;467112;253;1084;-45
2021/03/18 09:09:08;;;;;;;;;;;21.50;34.00;;;;;;468367;253;2204;-45
2021/03/18 09:11:10;;;;;;;;;;;21.50;34.00;;;;;;467007;252;1063;-45
2021/03/18 09:13:11;;;;;;;;;;;21.50;34.00;;;;;;467221;255;1334;-45
2021/03/18 09:15:12;;;;;;;;;;;21.50;34.10;;;;;;467730;254;888;-45
2021/03/18 09:17:14;;;;;;;;;;;21.50;34.10;;;;;;467401;253;1119;-45
2021/03/18 09:19:15;;;;;;;;;;;21.50;34.10;;;;;;468556;253;1128;-45
2021/03/18 09:21:16;;;;;;;;;;;21.50;34.10;;;;;;466047;254;1213;-45
2021/03/18 09:23:17;;;;;;;;;;;21.50;34.10;;;;;;467051;253;1189;-45
2021/03/18 09:25:19;;;;;;;;;;;21.50;34.10;;;;;;466615;254;1101;-45
2021/03/18 09:27:20;;;;;;;;;;;21.50;34.10;;;;;;467849;252;1240;-45
2021/03/18 09:29:21;;;;;;;;;;;21.50;34.00;;;;;;465998;252;2154;-45
2021/03/18 09:31:23;;;;;;;;;;;21.50;34.00;;;;;;466567;250;1479;-45
2021/03/18 09:33:24;;;;;;;;;;;21.50;34.10;;;;;;466605;253;1394;-45
2021/03/18 09:35:25;;;;;;;;;;;21.50;34.10;;;;;;467777;252;1124;-45
2021/03/18 09:37:26;;;;;;;;;;;21.50;34.00;;;;;;465986;252;1204;-45
2021/03/18 09:39:28;;;;;;;;;;;21.50;34.00;;;;;;466914;253;1090;-45
2021/03/18 09:41:29;;;;;;;;;;;21.50;34.00;;;;;;466127;253;1302;-45
2021/03/18 09:43:30;;;;;;;;;;;21.50;34.00;;;;;;467458;252;1220;-46
2021/03/18 09:45:31;;;;;;;;;;;21.50;34.00;;;;;;465788;253;1160;-45
2021/03/18 09:47:33;;;;;;;;;;;21.50;34.00;;;;;;466774;253;1410;-45
2021/03/18 09:49:34;;;;;;;;;;;21.60;34.00;;;;;;468841;254;2168;-45
2021/03/18 09:51:35;;;;;;;;;;;21.50;34.00;;;;;;469288;253;1184;-45
2021/03/18 09:53:37;;;;;;;;;;;21.50;34.00;;;;;;467410;252;980;-45
2021/03/18 09:55:38;;;;;;;;;;;21.60;34.00;;;;;;468458;253;1072;-45
2021/03/18 09:57:39;;;;;;;;;;;21.60;34.00;;;;;;466764;252;1065;-45
2021/03/18 09:59:41;;;;;;;;;;;21.60;34.00;;;;;;467347;253;972;-45
2021/03/18 10:01:42;;;;;;;;;;;21.60;34.00;;;;;;466999;254;1083;-45
2021/03/18 10:03:43;;;;;;;;;;;21.60;34.00;;;;;;468801;253;885;-45
2021/03/18 10:05:44;;;;;;;;;;;21.60;34.00;;;;;;466791;252;1372;-45
2021/03/18 10:07:46;;;;;;;;;;;21.60;34.00;;;;;;467387;255;1184;-45
2021/03/18 10:09:47;;;;;;;;;;;21.60;33.90;;;;;;467019;253;2205;-45
2021/03/18 10:11:48;;;;;;;;;;;21.60;34.00;;;;;;468760;252;875;-45
2021/03/18 10:13:49;;;;;;;;;;;21.60;34.00;;;;;;467000;252;883;-45
2021/03/18 10:15:51;;;;;;;;;;;21.60;34.00;;;;;;467207;255;1092;-45
2021/03/18 10:17:52;;;;;;;;;;;21.60;33.90;;;;;;466525;254;1262;-46
2021/03/18 10:19:53;;;;;;;;;;;21.60;33.90;;;;;;466650;254;1431;-45
2021/03/18 10:21:54;;;;;;;;;;;21.60;33.90;;;;;;466737;253;1183;-45
2021/03/18 10:23:56;;;;;;;;;;;21.60;33.90;;;;;;467976;253;1155;-45
2021/03/18 10:25:57;;;;;;;;;;;21.60;33.90;;;;;;466044;254;1152;-45
2021/03/18 10:27:58;;;;;;;;;;;21.60;33.90;;;;;;466750;253;1196;-45
2021/03/18 10:30:00;;;;;;;;;;;21.60;33.90;;;;;;466872;254;2197;-45
2021/03/18 10:32:01;;;;;;;;;;;21.60;33.90;;;;;;466681;252;1124;-45
2021/03/18 10:34:02;;;;;;;;;;;21.60;33.90;;;;;;467981;253;1148;-45
2021/03/18 10:36:04;;;;;;;;;;;21.60;33.90;;;;;;466033;251;1308;-45
2021/03/18 10:38:05;;;;;;;;;;;21.60;33.90;;;;;;466936;253;1227;-45
2021/03/18 10:40:06;;;;;;;;;;;21.70;33.90;;;;;;466697;254;1155;-45
2021/03/18 10:42:08;;;;;;;;;;;21.60;33.90;;;;;;466438;253;1313;-45
2021/03/18 10:44:09;;;;;;;;;;;21.60;33.90;;;;;;467852;253;1099;-45
2021/03/18 10:46:10;;;;;;;;;;;21.70;33.90;;;;;;466026;252;1158;-46
2021/03/18 10:48:12;;;;;;;;;;;21.70;33.90;;;;;;466868;253;1143;-45
2021/03/18 10:50:13;;;;;;;;;;;21.70;33.90;;;;;;466712;252;2166;-46
2021/03/18 10:52:14;;;;;;;;;;;21.70;33.90;;;;;;467820;253;1398;-45
2021/03/18 10:54:15;;;;;;;;;;;21.70;33.90;;;;;;466237;252;1171;-45
2021/03/18 10:56:17;;;;;;;;;;;21.70;33.90;;;;;;466826;255;1189;-45
2021/03/18 10:58:18;;;;;;;;;;;21.70;33.90;;;;;;466968;254;1109;-46
2021/03/18 11:00:19;;;;;;;;;;;21.70;33.90;;;;;;466690;253;1267;-45
2021/03/18 11:02:21;;;;;;;;;;;21.70;33.90;;;;;;467741;252;1212;-45
2021/03/18 11:04:22;;;;;;;;;;;21.70;33.80;;;;;;466117;254;1108;-45
2021/03/18 11:06:23;;;;;;;;;;;21.70;33.80;;;;;;466945;253;1137;-45
2021/03/18 11:08:24;;;;;;;;;;;21.70;33.80;;;;;;466440;252;1185;-45
2021/03/18 11:10:26;;;;;;;;;;;21.70;33.90;;;;;;467616;252;2173;-45
2021/03/18 11:12:27;;;;;;;;;;;21.70;33.80;;;;;;465963;253;1238;-45
2021/03/18 11:14:30;;;;;;;;;;;21.70;33.80;;;;;;466704;253;859;-45
2021/03/18 11:16:29;;;;;;;;;;;21.70;33.80;;;;;;467268;253;1608;-45
2021/03/18 11:18:31;;;;;;;;;;;21.70;33.80;;;;;;466857;254;1177;-46
2021/03/18 11:20:32;;;;;;;;;;;21.70;33.80;;;;;;468166;254;1104;-45
2021/03/18 11:22:33;;;;;;;;;;;21.70;33.80;;;;;;468943;254;1194;-45
2021/03/18 11:24:35;;;;;;;;;;;21.70;33.80;;;;;;467553;252;1066;-45
2021/03/18 11:26:36;;;;;;;;;;;21.70;33.70;;;;;;468624;252;1130;-45
2021/03/18 11:28:37;;;;;;;;;;;21.70;33.80;;;;;;466581;252;967;-46
2021/03/18 11:30:38;;;;;;;;;;;21.70;33.80;;;;;;467350;255;2208;-45
2021/03/18 11:32:40;;;;;;;;;;;21.70;33.80;;;;;;467524;252;1028;-45
2021/03/18 11:34:41;;;;;;;;;;;21.70;33.70;;;;;;468858;253;925;-45
2021/03/18 11:36:42;;;;;;;;;;;21.70;33.80;;;;;;466572;252;1123;-45
2021/03/18 11:38:44;;;;;;;;;;;21.70;33.80;;;;;;467448;253;1177;-45
2021/03/18 11:40:45;;;;;;;;;;;21.70;33.70;;;;;;466951;254;904;-45
2021/03/18 11:42:46;;;;;;;;;;;21.80;33.70;;;;;;468628;252;1003;-45
2021/03/18 11:44:48;;;;;;;;;;;21.70;33.70;;;;;;466977;254;949;-45
2021/03/18 11:46:49;;;;;;;;;;;21.70;33.70;;;;;;467695;253;1246;-46
2021/03/18 11:48:50;;;;;;;;;;;21.70;33.80;;;;;;467115;253;866;-45
2021/03/18 11:50:51;;;;;;;;;;;21.70;33.80;;;;;;468815;253;2223;-45
2021/03/18 11:52:52;;;;;;;;;;;21.70;33.70;;;;;;466929;252;1266;-45
2021/03/18 11:54:54;;;;;;;;;;;21.70;33.70;;;;;;467729;253;868;-45
2021/03/18 11:56:55;;;;;;;;;;;21.80;33.70;;;;;;467350;252;1090;-45